createdAt,value
2019-02-12T00:01:06.053Z,0
2019-02-12T00:02:16.130Z,0
2019-02-12T00:03:26.833Z,0
2019-02-12T00:04:37.013Z,0
2019-02-12T00:05:47.104Z,0
2019-02-12T00:06:57.214Z,0
2019-02-12T00:08:07.542Z,0
2019-02-12T00:09:17.618Z,0
2019-02-12T00:10:27.730Z,0
2019-02-12T00:11:37.830Z,0
2019-02-12T00:12:47.933Z,0
2019-02-12T00:13:57.932Z,0
2019-02-12T00:15:08.058Z,0
2019-02-12T00:16:18.196Z,0
2019-02-12T00:17:28.474Z,0
2019-02-12T00:18:38.552Z,0
2019-02-12T00:19:48.629Z,0
2019-02-12T00:20:58.712Z,0
2019-02-12T00:22:08.826Z,0
2019-02-12T00:23:18.892Z,0
2019-02-12T00:24:28.962Z,0
2019-02-12T00:25:39.082Z,0
2019-02-12T00:26:49.138Z,0
2019-02-12T00:27:59.210Z,0
2019-02-12T00:29:09.257Z,0
2019-02-12T00:30:19.612Z,0
2019-02-12T00:31:29.823Z,0
2019-02-12T00:32:39.902Z,0
2019-02-12T00:33:49.954Z,0
2019-02-12T00:35:00.050Z,0
2019-02-12T00:36:10.167Z,0
2019-02-12T00:37:19.830Z,0
2019-02-12T00:38:29.890Z,0
2019-02-12T00:39:40.219Z,0
2019-02-12T00:40:51.106Z,0
2019-02-12T00:42:01.188Z,0
2019-02-12T00:43:11.270Z,0
2019-02-12T00:44:21.094Z,0
2019-02-12T00:45:30.895Z,0
2019-02-12T00:46:40.995Z,0
2019-02-12T00:47:51.088Z,0
2019-02-12T00:49:01.144Z,0
2019-02-12T00:50:10.986Z,0
2019-02-12T00:51:27.317Z,0
2019-02-12T00:52:37.123Z,0
2019-02-12T00:53:47.296Z,0
2019-02-12T00:54:57.123Z,0
2019-02-12T00:56:06.926Z,0
2019-02-12T00:57:16.984Z,0
2019-02-12T00:58:27.061Z,0
2019-02-12T00:59:37.134Z,0
2019-02-12T01:00:47.006Z,0
2019-02-12T01:01:57.072Z,0
2019-02-12T01:03:06.926Z,0
2019-02-12T01:04:17.058Z,0
2019-02-12T01:05:27.131Z,0
2019-02-12T01:06:37.201Z,0
2019-02-12T01:07:47.274Z,0
2019-02-12T01:08:57.134Z,0
2019-02-12T01:10:08.449Z,0
2019-02-12T01:11:18.312Z,0
2019-02-12T01:12:29.023Z,0
2019-02-12T01:13:38.888Z,0
2019-02-12T01:14:49.008Z,0
2019-02-12T01:15:59.080Z,0
2019-02-12T01:17:09.152Z,0
2019-02-12T01:18:19.201Z,0
2019-02-12T01:19:29.295Z,0
2019-02-12T01:20:39.344Z,0
2019-02-12T01:21:49.407Z,0
2019-02-12T01:22:58.958Z,0
2019-02-12T01:24:09.092Z,0
2019-02-12T01:25:19.164Z,0
2019-02-12T01:26:29.241Z,0
2019-02-12T01:27:39.315Z,0
2019-02-12T01:28:49.442Z,0
2019-02-12T01:29:59.526Z,0
2019-02-12T01:31:09.594Z,0
2019-02-12T01:32:19.913Z,0
2019-02-12T01:33:29.991Z,0
2019-02-12T01:34:39.328Z,0
2019-02-12T01:35:49.394Z,0
2019-02-12T01:36:59.463Z,0
2019-02-12T01:38:09.378Z,0
2019-02-12T01:39:19.425Z,0
2019-02-12T01:40:29.496Z,0
2019-02-12T01:41:39.797Z,0
2019-02-12T01:42:49.879Z,0
2019-02-12T01:43:59.947Z,0
2019-02-12T01:45:09.989Z,0
2019-02-12T01:46:19.852Z,0
2019-02-12T01:47:29.411Z,0
2019-02-12T01:48:39.688Z,0
2019-02-12T01:49:49.807Z,0
2019-02-12T01:50:59.852Z,0
2019-02-12T01:52:09.747Z,0
2019-02-12T01:53:19.826Z,0
2019-02-12T01:54:29.897Z,0
2019-02-12T01:55:39.727Z,0
2019-02-12T01:56:49.805Z,0
2019-02-12T01:57:59.877Z,0
2019-02-12T01:59:12.692Z,0
2019-02-12T02:00:22.972Z,0
2019-02-12T02:01:33.082Z,0
2019-02-12T02:02:43.189Z,0
2019-02-12T02:03:53.243Z,0
2019-02-12T02:05:03.358Z,0
2019-02-12T02:06:13.750Z,0
2019-02-12T02:07:23.801Z,0
2019-02-12T02:08:33.926Z,0
2019-02-12T02:09:44.009Z,0
2019-02-12T02:10:53.907Z,0
2019-02-12T02:12:03.987Z,0
2019-02-12T02:13:14.053Z,0
2019-02-12T02:14:24.137Z,0
2019-02-12T02:15:34.301Z,0
2019-02-12T02:16:44.368Z,0
2019-02-12T02:17:54.465Z,0
2019-02-12T02:19:04.525Z,0
2019-02-12T02:20:14.598Z,0
2019-02-12T02:21:24.730Z,0
2019-02-12T02:22:34.268Z,0
2019-02-12T02:23:44.343Z,0
2019-02-12T02:24:54.478Z,0
2019-02-12T02:26:04.861Z,0
2019-02-12T02:27:14.996Z,0
2019-02-12T02:28:25.072Z,0
2019-02-12T02:29:35.168Z,0
2019-02-12T02:30:45.275Z,0
2019-02-12T02:31:55.364Z,0
2019-02-12T02:33:06.081Z,0
2019-02-12T02:34:16.140Z,0
2019-02-12T02:35:25.980Z,0
2019-02-12T02:36:36.062Z,0
2019-02-12T02:37:45.970Z,0
2019-02-12T02:38:56.289Z,0
2019-02-12T02:40:07.202Z,0
2019-02-12T02:41:17.292Z,0
2019-02-12T02:42:27.362Z,0
2019-02-12T02:43:37.441Z,0
2019-02-12T02:44:47.518Z,0
2019-02-12T02:45:57.464Z,0
2019-02-12T02:47:09.254Z,0
2019-02-12T02:48:19.318Z,0
2019-02-12T02:49:29.386Z,0
2019-02-12T02:50:39.451Z,0
2019-02-12T02:51:58.449Z,0
2019-02-12T02:53:08.561Z,0
2019-02-12T02:54:18.626Z,0
2019-02-12T02:55:28.220Z,0
2019-02-12T02:56:38.017Z,0
2019-02-12T02:57:48.115Z,0
2019-02-12T02:58:58.206Z,0
2019-02-12T03:00:10.763Z,0
2019-02-12T03:01:20.818Z,0
2019-02-12T03:02:30.888Z,0
2019-02-12T03:34:14.506Z,0
2019-02-12T03:35:24.590Z,0
2019-02-12T03:36:34.649Z,0
2019-02-12T03:37:44.545Z,0
2019-02-12T03:38:54.704Z,0
2019-02-12T03:40:04.808Z,0
2019-02-12T03:41:14.929Z,0
2019-02-12T03:42:24.985Z,0
2019-02-12T03:43:35.099Z,0
2019-02-12T03:44:44.894Z,0
2019-02-12T03:45:54.948Z,0
2019-02-12T03:47:05.109Z,0
2019-02-12T03:48:15.399Z,0
2019-02-12T03:49:25.221Z,0
2019-02-12T03:50:35.399Z,0
2019-02-12T03:51:45.247Z,0
2019-02-12T03:52:55.327Z,0
2019-02-12T03:54:05.389Z,0
2019-02-12T03:55:15.483Z,0
2019-02-12T03:56:25.560Z,0
2019-02-12T03:57:35.614Z,0
2019-02-12T03:58:45.680Z,0
2019-02-12T03:59:55.506Z,0
2019-02-12T04:01:05.589Z,0
2019-02-12T04:02:15.414Z,0
2019-02-12T04:03:25.514Z,0
2019-02-12T04:04:35.590Z,0
2019-02-12T04:05:45.152Z,0
2019-02-12T04:06:55.215Z,0
2019-02-12T04:08:07.925Z,0
2019-02-12T04:09:17.745Z,0
2019-02-12T04:10:27.819Z,0
2019-02-12T04:11:37.866Z,0
2019-02-12T04:12:47.691Z,0
2019-02-12T04:13:57.764Z,0
2019-02-12T04:15:07.880Z,0
2019-02-12T04:16:17.961Z,0
2019-02-12T04:17:27.781Z,0
2019-02-12T04:18:37.885Z,0
2019-02-12T04:19:47.954Z,0
2019-02-12T04:20:58.024Z,0
2019-02-12T04:22:07.848Z,0
2019-02-12T04:23:17.950Z,0
2019-02-12T04:24:28.015Z,0
2019-02-12T04:25:38.183Z,0
2019-02-12T04:26:48.225Z,0
2019-02-12T04:28:00.431Z,0
2019-02-12T04:29:10.509Z,0
2019-02-12T04:30:20.613Z,0
2019-02-12T04:31:30.793Z,0
2019-02-12T04:32:40.908Z,0
2019-02-12T04:33:50.980Z,0
2019-02-12T04:35:01.070Z,0
2019-02-12T04:36:10.878Z,0
2019-02-12T04:37:20.977Z,0
2019-02-12T04:38:31.151Z,0
2019-02-12T04:39:41.222Z,0
2019-02-12T04:40:51.304Z,0
2019-02-12T04:42:01.403Z,0
2019-02-12T04:43:11.465Z,0
2019-02-12T04:44:21.610Z,0
2019-02-12T04:45:31.709Z,0
2019-02-12T04:46:42.006Z,0
2019-02-12T04:47:52.067Z,0
2019-02-12T04:49:01.619Z,0
2019-02-12T04:50:11.685Z,0
2019-02-12T04:51:21.769Z,0
2019-02-12T04:52:41.391Z,0
2019-02-12T04:53:51.456Z,0
2019-02-12T04:55:01.665Z,0
2019-02-12T04:56:11.477Z,0
2019-02-12T04:57:21.554Z,0
2019-02-12T04:58:31.361Z,0
2019-02-12T04:59:41.183Z,0
2019-02-12T05:00:51.038Z,0
2019-02-12T05:02:01.152Z,0
2019-02-12T05:03:10.948Z,0
2019-02-12T05:04:21.181Z,0
2019-02-12T05:05:30.979Z,0
2019-02-12T05:06:41.081Z,0
2019-02-12T05:07:51.150Z,0
2019-02-12T05:09:02.824Z,0
2019-02-12T05:10:12.928Z,0
2019-02-12T05:11:22.994Z,0
2019-02-12T05:12:32.869Z,0
2019-02-12T05:13:42.687Z,0
2019-02-12T05:14:52.834Z,0
2019-02-12T05:16:03.013Z,0
2019-02-12T05:17:12.818Z,0
2019-02-12T05:18:22.643Z,0
2019-02-12T05:19:32.854Z,0
2019-02-12T05:20:42.928Z,0
2019-02-12T05:21:52.998Z,0
2019-02-12T05:23:02.567Z,0
2019-02-12T05:24:12.634Z,0
2019-02-12T05:25:22.776Z,0
2019-02-12T05:26:32.871Z,0
2019-02-12T05:27:42.987Z,0
2019-02-12T05:28:53.064Z,0
2019-02-12T05:30:03.727Z,0
2019-02-12T05:31:13.342Z,0
2019-02-12T05:32:23.222Z,0
2019-02-12T05:33:33.528Z,0
2019-02-12T05:34:43.585Z,0
2019-02-12T05:35:53.678Z,0
2019-02-12T05:37:03.805Z,0
2019-02-12T05:38:13.890Z,0
2019-02-12T05:39:23.712Z,0
2019-02-12T05:40:34.070Z,0
2019-02-12T05:41:44.290Z,0
2019-02-12T05:42:54.566Z,0
2019-02-12T05:44:04.354Z,0
2019-02-12T05:45:14.464Z,0
2019-02-12T05:46:24.542Z,0
2019-02-12T05:47:34.639Z,0
2019-02-12T05:48:44.785Z,0
2019-02-12T05:49:54.830Z,0
2019-02-12T05:51:04.912Z,0
2019-02-12T05:52:15.004Z,0
2019-02-12T05:53:25.151Z,0
2019-02-12T05:54:35.311Z,0
2019-02-12T05:55:45.414Z,0
2019-02-12T05:56:55.498Z,0
2019-02-12T05:58:07.928Z,0
2019-02-12T05:59:18.133Z,0
2019-02-12T06:00:28.234Z,0
2019-02-12T06:01:38.327Z,0
2019-02-12T06:02:48.399Z,0
2019-02-12T06:03:58.470Z,0
2019-02-12T06:05:08.625Z,0
2019-02-12T06:06:19.652Z,0
2019-02-12T06:07:29.719Z,0
2019-02-12T06:08:39.798Z,0
2019-02-12T06:09:49.868Z,0
2019-02-12T06:11:01.709Z,0
2019-02-12T06:12:11.515Z,0
2019-02-12T06:13:21.588Z,5
2019-02-12T06:14:31.674Z,5
2019-02-12T06:15:41.480Z,5
2019-02-12T06:16:51.388Z,5
2019-02-12T06:18:02.376Z,5
2019-02-12T06:19:14.026Z,10
2019-02-12T06:20:23.817Z,10
2019-02-12T06:21:33.637Z,10
2019-02-12T06:22:43.740Z,10
2019-02-12T06:23:53.825Z,10
2019-02-12T06:25:03.778Z,15
2019-02-12T06:26:13.877Z,15
2019-02-12T06:27:23.954Z,15
2019-02-12T06:28:34.058Z,15
2019-02-12T06:29:44.153Z,15
2019-02-12T06:30:53.979Z,15
2019-02-12T06:32:04.326Z,15
2019-02-12T06:33:17.356Z,15
2019-02-12T06:34:27.490Z,15
2019-02-12T06:35:37.584Z,15
2019-02-12T06:36:47.681Z,20
2019-02-12T06:37:57.767Z,20
2019-02-12T06:39:07.848Z,20
2019-02-12T06:40:17.962Z,20
2019-02-12T06:41:28.012Z,20
2019-02-12T06:42:37.827Z,25
2019-02-12T06:43:47.941Z,25
2019-02-12T06:44:58.012Z,25
2019-02-12T06:46:08.405Z,25
2019-02-12T06:47:18.689Z,30
2019-02-12T06:48:28.533Z,35
2019-02-12T06:49:38.592Z,35
2019-02-12T06:50:48.408Z,40
2019-02-12T06:51:58.823Z,40
2019-02-12T06:53:17.327Z,45
2019-02-12T06:54:27.131Z,45
2019-02-12T06:55:37.191Z,50
2019-02-12T06:56:47.030Z,50
2019-02-12T06:57:57.229Z,50
2019-02-12T06:59:07.943Z,55
2019-02-12T07:00:18.288Z,55
2019-02-12T07:01:28.330Z,55
2019-02-12T07:02:38.511Z,60
2019-02-12T07:03:48.141Z,60
2019-02-12T07:04:57.966Z,60
2019-02-12T07:06:08.552Z,55
2019-02-12T07:07:18.615Z,45
2019-02-12T07:08:28.735Z,45
2019-02-12T07:09:38.811Z,40
2019-02-12T07:10:48.886Z,40
2019-02-12T07:11:58.756Z,45
2019-02-12T07:13:10.655Z,50
2019-02-12T07:14:20.478Z,55
2019-02-12T07:15:30.576Z,45
2019-02-12T07:16:40.369Z,40
2019-02-12T07:17:50.441Z,45
2019-02-12T07:19:01.845Z,50
2019-02-12T07:20:11.927Z,45
2019-02-12T07:21:22.050Z,40
2019-02-12T07:22:32.116Z,40
2019-02-12T07:23:42.193Z,40
2019-02-12T07:24:52.248Z,45
2019-02-12T07:26:02.541Z,45
2019-02-12T07:27:12.661Z,45
2019-02-12T07:28:22.737Z,40
2019-02-12T07:29:32.832Z,40
2019-02-12T07:30:42.878Z,40
2019-02-12T07:31:52.966Z,40
2019-02-12T07:33:03.038Z,40
2019-02-12T07:34:13.265Z,40
2019-02-12T07:35:23.432Z,40
2019-02-12T07:36:33.549Z,50
2019-02-12T07:37:43.679Z,50
2019-02-12T07:38:54.111Z,60
2019-02-12T07:40:04.186Z,65
2019-02-12T07:41:22.294Z,70
2019-02-12T07:42:34.298Z,75
2019-02-12T07:43:44.375Z,75
2019-02-12T07:44:54.463Z,75
2019-02-12T07:46:04.714Z,75
2019-02-12T07:47:14.860Z,80
2019-02-12T07:48:24.968Z,85
2019-02-12T07:49:35.132Z,90
2019-02-12T07:50:45.206Z,90
2019-02-12T07:51:55.259Z,95
2019-02-12T07:53:05.334Z,95
2019-02-12T07:54:15.405Z,80
2019-02-12T07:55:25.498Z,85
2019-02-12T07:56:35.577Z,85
2019-02-12T07:57:45.519Z,95
2019-02-12T07:58:55.464Z,90
2019-02-12T08:00:05.652Z,90
2019-02-12T08:01:15.788Z,90
2019-02-12T08:02:25.947Z,90
2019-02-12T08:03:36.097Z,90
2019-02-12T08:04:46.177Z,105
2019-02-12T08:05:56.263Z,115
2019-02-12T08:07:06.419Z,110
2019-02-12T08:08:16.533Z,100
2019-02-12T08:09:26.603Z,80
2019-02-12T08:10:36.677Z,85
2019-02-12T08:11:46.811Z,110
2019-02-12T08:12:56.656Z,110
2019-02-12T08:14:06.723Z,160
2019-02-12T08:15:16.795Z,135
2019-02-12T08:16:26.642Z,180
2019-02-12T08:17:36.958Z,155
2019-02-12T08:18:47.039Z,110
2019-02-12T08:19:57.128Z,95
2019-02-12T08:21:06.710Z,80
2019-02-12T08:22:19.122Z,90
2019-02-12T08:23:29.217Z,100
2019-02-12T08:24:39.384Z,100
2019-02-12T08:25:49.528Z,85
2019-02-12T08:26:59.615Z,90
2019-02-12T08:28:10.087Z,100
2019-02-12T08:29:20.284Z,95
2019-02-12T08:30:30.398Z,75
2019-02-12T08:31:40.512Z,65
2019-02-12T08:32:50.626Z,75
2019-02-12T08:34:00.751Z,75
2019-02-12T08:35:10.897Z,85
2019-02-12T08:36:20.984Z,90
2019-02-12T08:37:32.022Z,105
2019-02-12T08:38:42.421Z,110
2019-02-12T08:39:55.134Z,115
2019-02-12T08:41:05.307Z,115
2019-02-12T08:42:15.166Z,120
2019-02-12T08:43:25.307Z,115
2019-02-12T08:44:35.387Z,110
2019-02-12T08:45:45.691Z,155
2019-02-12T08:46:58.074Z,150
2019-02-12T08:48:08.197Z,135
2019-02-12T08:49:18.316Z,115
2019-02-12T08:50:28.397Z,165
2019-02-12T08:51:38.477Z,110
2019-02-12T08:52:48.046Z,115
2019-02-12T08:54:00.128Z,155
2019-02-12T08:55:11.414Z,170
2019-02-12T08:56:21.510Z,135
2019-02-12T08:57:31.341Z,130
2019-02-12T08:58:41.180Z,140
2019-02-12T08:59:51.347Z,195
2019-02-12T09:01:01.380Z,135
2019-02-12T09:02:11.222Z,135
2019-02-12T09:03:21.316Z,150
2019-02-12T09:04:31.397Z,155
2019-02-12T09:05:41.229Z,185
2019-02-12T09:06:51.328Z,160
2019-02-12T09:08:01.798Z,150
2019-02-12T09:09:12.458Z,140
2019-02-12T09:10:22.571Z,140
2019-02-12T09:11:32.643Z,140
2019-02-12T09:12:42.466Z,140
2019-02-12T09:13:52.583Z,145
2019-02-12T09:15:02.768Z,140
2019-02-12T09:16:12.949Z,140
2019-02-12T09:17:23.001Z,140
2019-02-12T09:18:34.801Z,140
2019-02-12T09:19:45.172Z,140
2019-02-12T09:20:55.219Z,140
2019-02-12T09:22:05.313Z,140
2019-02-12T09:23:15.650Z,140
2019-02-12T09:24:25.826Z,140
2019-02-12T09:25:35.898Z,135
2019-02-12T09:26:45.743Z,140
2019-02-12T09:27:55.803Z,145
2019-02-12T09:29:08.022Z,150
2019-02-12T09:30:18.207Z,150
2019-02-12T09:31:28.277Z,150
2019-02-12T09:32:38.359Z,140
2019-02-12T09:33:48.174Z,135
2019-02-12T09:34:58.244Z,130
2019-02-12T09:36:08.466Z,130
2019-02-12T09:37:18.536Z,130
2019-02-12T09:38:28.838Z,135
2019-02-12T09:39:38.923Z,140
2019-02-12T09:40:49.015Z,150
2019-02-12T09:41:59.067Z,150
2019-02-12T09:43:09.179Z,140
2019-02-12T09:44:18.980Z,130
2019-02-12T09:45:29.280Z,130
2019-02-12T09:46:39.124Z,135
2019-02-12T09:47:49.445Z,140
2019-02-12T09:48:59.968Z,145
2019-02-12T09:50:10.931Z,150
2019-02-12T09:51:21.089Z,150
2019-02-12T09:52:30.903Z,150
2019-02-12T09:53:40.970Z,155
2019-02-12T09:54:51.067Z,155
2019-02-12T09:56:01.208Z,155
2019-02-12T09:57:11.086Z,155
2019-02-12T09:58:21.136Z,160
2019-02-12T09:59:31.270Z,160
2019-02-12T10:00:41.336Z,160
2019-02-12T10:01:51.646Z,160
2019-02-12T10:03:01.717Z,160
2019-02-12T10:04:11.799Z,160
2019-02-12T10:05:21.858Z,155
2019-02-12T10:06:34.106Z,155
2019-02-12T10:07:44.815Z,165
2019-02-12T10:08:54.696Z,170
2019-02-12T10:10:04.560Z,170
2019-02-12T10:11:14.579Z,175
2019-02-12T10:12:24.725Z,175
2019-02-12T10:13:34.813Z,170
2019-02-12T10:14:44.951Z,165
2019-02-12T10:15:54.773Z,160
2019-02-12T10:17:05.107Z,160
2019-02-12T10:18:15.184Z,160
2019-02-12T10:19:25.297Z,155
2019-02-12T10:20:35.143Z,155
2019-02-12T10:21:45.222Z,150
2019-02-12T10:22:55.306Z,150
2019-02-12T10:24:07.253Z,150
2019-02-12T10:25:17.332Z,150
2019-02-12T10:26:27.456Z,155
2019-02-12T10:27:37.266Z,155
2019-02-12T10:28:56.035Z,190
2019-02-12T10:30:06.155Z,160
2019-02-12T10:31:16.226Z,165
2019-02-12T10:32:26.319Z,165
2019-02-12T10:33:36.161Z,160
2019-02-12T10:34:46.227Z,160
2019-02-12T10:35:56.051Z,160
2019-02-12T10:37:06.162Z,155
2019-02-12T10:38:17.285Z,155
2019-02-12T10:39:27.377Z,150
2019-02-12T10:40:37.515Z,150
2019-02-12T10:41:47.602Z,150
2019-02-12T10:42:57.675Z,150
2019-02-12T10:44:08.445Z,150
2019-02-12T10:45:18.563Z,160
2019-02-12T10:46:28.658Z,165
2019-02-12T10:47:38.493Z,155
2019-02-12T10:48:48.558Z,155
2019-02-12T10:49:59.624Z,150
2019-02-12T10:51:10.533Z,155
2019-02-12T10:52:20.644Z,155
2019-02-12T10:53:32.062Z,160
2019-02-12T10:54:41.610Z,165
2019-02-12T10:55:51.688Z,175
2019-02-12T10:57:01.831Z,180
2019-02-12T10:58:13.480Z,170
2019-02-12T10:59:24.159Z,165
2019-02-12T11:00:33.954Z,160
2019-02-12T11:01:43.773Z,155
2019-02-12T11:02:53.837Z,150
2019-02-12T11:04:03.941Z,155
2019-02-12T11:05:13.989Z,160
2019-02-12T11:06:24.064Z,165
2019-02-12T11:07:34.125Z,165
2019-02-12T11:08:43.918Z,170
2019-02-12T11:09:54.010Z,175
2019-02-12T11:11:04.084Z,175
2019-02-12T11:12:14.178Z,155
2019-02-12T11:13:24.265Z,140
2019-02-12T11:14:34.201Z,150
2019-02-12T11:15:44.252Z,155
2019-02-12T11:16:54.301Z,160
2019-02-12T11:18:04.379Z,165
2019-02-12T11:19:14.437Z,175
2019-02-12T11:20:24.619Z,170
2019-02-12T11:21:34.546Z,165
2019-02-12T11:22:44.616Z,160
2019-02-12T11:23:54.683Z,160
2019-02-12T11:25:04.755Z,170
2019-02-12T11:26:14.898Z,180
2019-02-12T11:27:30.014Z,175
2019-02-12T11:28:39.840Z,165
2019-02-12T11:29:50.520Z,160
2019-02-12T11:31:06.280Z,160
2019-02-12T11:32:16.352Z,160
2019-02-12T11:33:26.435Z,165
2019-02-12T11:34:36.453Z,170
2019-02-12T11:35:46.416Z,160
2019-02-12T11:36:56.619Z,160
2019-02-12T11:38:06.721Z,160
2019-02-12T11:39:16.544Z,160
2019-02-12T11:40:26.343Z,160
2019-02-12T11:41:36.427Z,160
2019-02-12T11:42:46.491Z,165
2019-02-12T11:43:56.550Z,165
2019-02-12T11:45:06.628Z,165
2019-02-12T11:46:16.432Z,160
2019-02-12T11:47:26.595Z,150
2019-02-12T11:48:36.710Z,140
2019-02-12T11:49:46.520Z,140
2019-02-12T11:50:56.621Z,195
2019-02-12T11:52:06.831Z,235
2019-02-12T11:53:16.929Z,235
2019-02-12T11:54:27.047Z,215
2019-02-12T11:55:37.413Z,180
2019-02-12T11:56:47.627Z,130
2019-02-12T11:57:57.690Z,150
2019-02-12T11:59:08.200Z,145
2019-02-12T12:00:18.308Z,205
2019-02-12T12:01:28.375Z,210
2019-02-12T12:02:44.696Z,195
2019-02-12T12:03:54.761Z,170
2019-02-12T12:05:04.866Z,185
2019-02-12T12:06:14.732Z,170
2019-02-12T12:07:25.050Z,150
2019-02-12T12:08:35.107Z,155
2019-02-12T12:09:45.199Z,150
2019-02-12T12:10:55.312Z,165
2019-02-12T12:12:05.108Z,150
2019-02-12T12:13:14.923Z,155
2019-02-12T12:14:24.999Z,160
2019-02-12T12:15:35.065Z,160
2019-02-12T12:16:45.133Z,165
2019-02-12T12:17:55.267Z,150
2019-02-12T12:19:05.337Z,125
2019-02-12T12:20:15.484Z,110
2019-02-12T12:21:25.332Z,110
2019-02-12T12:22:35.465Z,120
2019-02-12T12:23:45.554Z,150
2019-02-12T12:25:01.535Z,125
2019-02-12T12:26:11.445Z,90
2019-02-12T12:27:21.547Z,85
2019-02-12T12:28:31.385Z,90
2019-02-12T12:29:41.467Z,90
2019-02-12T12:30:51.850Z,70
2019-02-12T12:32:01.661Z,45
2019-02-12T12:33:11.992Z,45
2019-02-12T12:34:22.108Z,45
2019-02-12T12:35:32.228Z,50
2019-02-12T12:36:42.764Z,55
2019-02-12T12:37:52.646Z,45
2019-02-12T12:39:03.318Z,60
2019-02-12T12:40:13.370Z,75
2019-02-12T12:41:23.442Z,90
2019-02-12T12:42:33.309Z,110
2019-02-12T12:43:43.418Z,110
2019-02-12T12:44:54.517Z,105
2019-02-12T12:46:04.892Z,95
2019-02-12T12:47:15.520Z,90
2019-02-12T12:48:25.347Z,85
2019-02-12T12:49:39.180Z,75
2019-02-12T12:50:49.305Z,55
2019-02-12T12:51:59.224Z,45
2019-02-12T12:53:09.330Z,45
2019-02-12T12:54:19.469Z,35
2019-02-12T12:55:30.269Z,30
2019-02-12T12:56:40.347Z,30
2019-02-12T12:57:51.899Z,40
2019-02-12T12:59:02.103Z,65
2019-02-12T13:00:12.328Z,65
2019-02-12T13:01:22.615Z,55
2019-02-12T13:02:32.689Z,60
2019-02-12T13:03:42.768Z,80
2019-02-12T13:04:52.835Z,105
2019-02-12T13:06:02.637Z,120
2019-02-12T13:07:12.947Z,135
2019-02-12T13:08:23.015Z,135
2019-02-12T13:09:32.886Z,135
2019-02-12T13:10:44.566Z,125
2019-02-12T13:11:54.325Z,100
2019-02-12T13:13:04.799Z,90
2019-02-12T13:14:14.928Z,95
2019-02-12T13:15:24.726Z,95
2019-02-12T13:16:34.895Z,90
2019-02-12T13:17:44.710Z,90
2019-02-12T13:19:10.917Z,85
2019-02-12T13:20:21.002Z,85
2019-02-12T13:21:31.069Z,90
2019-02-12T13:22:40.895Z,95
2019-02-12T13:23:51.015Z,95
2019-02-12T13:25:08.110Z,95
2019-02-12T13:26:18.713Z,90
2019-02-12T13:27:28.519Z,80
2019-02-12T13:28:38.603Z,65
2019-02-12T13:29:48.406Z,40
2019-02-12T13:30:58.723Z,45
2019-02-12T13:32:08.813Z,55
2019-02-12T13:33:19.142Z,60
2019-02-12T13:34:29.004Z,55
2019-02-12T13:35:39.116Z,55
2019-02-12T13:36:48.648Z,60
2019-02-12T13:37:58.736Z,65
2019-02-12T13:39:09.402Z,65
2019-02-12T13:40:19.461Z,60
2019-02-12T13:41:29.608Z,50
2019-02-12T13:42:39.717Z,40
2019-02-12T13:43:49.947Z,30
2019-02-12T13:45:00.033Z,35
2019-02-12T13:46:09.886Z,50
2019-02-12T13:47:20.197Z,55
2019-02-12T13:48:30.638Z,55
2019-02-12T13:49:40.456Z,50
2019-02-12T13:50:50.582Z,45
2019-02-12T13:52:00.410Z,40
2019-02-12T13:53:10.486Z,35
2019-02-12T13:54:20.301Z,50
2019-02-12T13:55:32.296Z,60
2019-02-12T13:56:42.347Z,65
2019-02-12T13:57:52.419Z,70
2019-02-12T13:59:02.501Z,75
2019-02-12T14:00:12.459Z,80
2019-02-12T14:01:22.266Z,85
2019-02-12T14:02:32.271Z,90
2019-02-12T14:03:42.679Z,90
2019-02-12T14:04:52.766Z,95
2019-02-12T14:06:03.168Z,100
2019-02-12T14:07:13.467Z,115
2019-02-12T14:08:23.559Z,155
2019-02-12T14:09:33.424Z,120
2019-02-12T14:10:43.518Z,160
2019-02-12T14:11:53.340Z,155
2019-02-12T14:13:04.867Z,105
2019-02-12T14:14:14.958Z,85
2019-02-12T14:15:24.800Z,120
2019-02-12T14:16:34.652Z,130
2019-02-12T14:17:44.800Z,75
2019-02-12T14:18:55.107Z,70
2019-02-12T14:20:05.517Z,65
2019-02-12T14:21:15.583Z,65
2019-02-12T14:22:25.706Z,65
2019-02-12T14:23:37.134Z,60
2019-02-12T14:24:47.205Z,55
2019-02-12T14:25:57.277Z,55
2019-02-12T14:27:07.929Z,55
2019-02-12T14:28:17.996Z,65
2019-02-12T14:29:28.071Z,60
2019-02-12T14:30:38.124Z,70
2019-02-12T14:31:57.358Z,85
2019-02-12T14:33:07.742Z,80
2019-02-12T14:34:17.812Z,105
2019-02-12T14:35:27.705Z,70
2019-02-12T14:36:37.762Z,110
2019-02-12T14:37:47.990Z,105
2019-02-12T14:38:58.446Z,105
2019-02-12T14:40:08.516Z,110
2019-02-12T14:41:18.620Z,80
2019-02-12T14:42:28.255Z,105
2019-02-12T14:43:38.093Z,105
2019-02-12T14:44:48.194Z,85
2019-02-12T14:45:58.255Z,100
2019-02-12T14:47:08.606Z,95
2019-02-12T14:48:18.705Z,70
2019-02-12T14:49:29.087Z,70
2019-02-12T14:50:39.197Z,60
2019-02-12T14:51:48.999Z,105
2019-02-12T14:52:58.799Z,75
2019-02-12T14:54:09.857Z,60
2019-02-12T14:55:19.703Z,55
2019-02-12T14:56:29.803Z,50
2019-02-12T14:57:39.634Z,50
2019-02-12T14:58:49.766Z,50
2019-02-12T14:59:59.882Z,45
2019-02-12T15:01:11.291Z,45
2019-02-12T15:02:21.433Z,45
2019-02-12T15:03:31.540Z,45
2019-02-12T15:04:41.599Z,45
2019-02-12T15:05:51.733Z,40
2019-02-12T15:07:02.821Z,40
2019-02-12T15:08:13.062Z,35
2019-02-12T15:09:23.147Z,35
2019-02-12T15:10:33.490Z,35
2019-02-12T15:11:43.570Z,35
2019-02-12T15:12:53.396Z,35
2019-02-12T15:14:03.704Z,35
2019-02-12T15:15:13.770Z,35
2019-02-12T15:16:23.854Z,35
2019-02-12T15:17:33.931Z,35
2019-02-12T15:18:44.032Z,30
2019-02-12T15:19:53.853Z,30
2019-02-12T15:21:03.969Z,30
2019-02-12T15:22:14.071Z,30
2019-02-12T15:23:24.614Z,30
2019-02-12T15:24:34.905Z,30
2019-02-12T15:25:51.547Z,30
2019-02-12T15:27:03.606Z,30
2019-02-12T15:28:13.423Z,30
2019-02-12T15:29:23.510Z,25
2019-02-12T15:30:33.591Z,25
2019-02-12T15:31:44.564Z,25
2019-02-12T15:32:54.767Z,25
2019-02-12T15:34:04.869Z,25
2019-02-12T15:35:14.972Z,25
2019-02-12T15:36:25.065Z,25
2019-02-12T15:37:35.224Z,20
2019-02-12T15:38:45.411Z,20
2019-02-12T15:39:55.703Z,20
2019-02-12T15:41:05.315Z,20
2019-02-12T15:42:15.410Z,20
2019-02-12T15:43:26.929Z,20
2019-02-12T15:44:36.976Z,20
2019-02-12T15:45:50.660Z,15
2019-02-12T15:47:03.293Z,15
2019-02-12T15:48:13.403Z,15
2019-02-12T15:49:23.203Z,15
2019-02-12T15:50:33.281Z,15
2019-02-12T15:51:43.507Z,15
2019-02-12T15:52:53.565Z,15
2019-02-12T15:54:03.618Z,15
2019-02-12T15:55:13.430Z,10
2019-02-12T15:56:23.512Z,10
2019-02-12T15:57:34.974Z,10
2019-02-12T15:58:45.038Z,10
2019-02-12T15:59:56.491Z,10
2019-02-12T16:01:08.695Z,5
2019-02-12T16:02:20.995Z,5
2019-02-12T16:03:31.183Z,5
2019-02-12T16:04:40.992Z,5
2019-02-12T16:05:51.380Z,5
2019-02-12T16:07:05.602Z,5
2019-02-12T16:08:18.614Z,5
2019-02-12T16:09:28.482Z,5
2019-02-12T16:10:41.759Z,0
2019-02-12T16:11:53.749Z,0
2019-02-12T16:13:03.827Z,0
2019-02-12T16:14:13.910Z,0
2019-02-12T16:15:27.294Z,0
2019-02-12T16:16:39.417Z,0
2019-02-12T16:17:49.207Z,0
2019-02-12T16:18:59.278Z,0
2019-02-12T16:20:10.132Z,0
2019-02-12T16:21:20.095Z,0
2019-02-12T16:22:30.179Z,0
2019-02-12T16:23:40.709Z,0
2019-02-12T16:24:51.195Z,0
2019-02-12T16:26:09.215Z,0
2019-02-12T16:27:19.029Z,0
2019-02-12T16:28:28.863Z,0
2019-02-12T16:29:40.526Z,0
2019-02-12T16:30:50.731Z,0
2019-02-12T16:32:00.603Z,0
2019-02-12T16:33:12.094Z,0
2019-02-12T16:34:22.291Z,0
2019-02-12T16:35:32.363Z,0
2019-02-12T16:36:42.428Z,0
2019-02-12T16:37:52.552Z,0
2019-02-12T16:39:02.718Z,0
2019-02-12T16:40:13.219Z,0
2019-02-12T16:41:23.057Z,0
2019-02-12T16:42:33.133Z,0
2019-02-12T16:43:43.199Z,0
2019-02-12T16:44:53.302Z,0
2019-02-12T16:49:21.960Z,0
2019-02-12T16:50:32.032Z,0
2019-02-12T16:51:42.136Z,0
2019-02-12T16:52:52.202Z,0
2019-02-12T16:54:02.282Z,0
2019-02-12T16:55:14.229Z,0
2019-02-12T16:56:24.307Z,0
2019-02-12T16:57:34.136Z,0
2019-02-12T16:58:44.258Z,0
2019-02-12T16:59:54.363Z,0
2019-02-12T17:01:04.603Z,0
2019-02-12T17:02:14.776Z,0
2019-02-12T17:03:25.076Z,0
2019-02-12T17:04:34.654Z,0
2019-02-12T17:05:44.744Z,0
2019-02-12T17:06:54.586Z,0
2019-02-12T17:08:04.694Z,0
2019-02-12T17:09:15.014Z,0
2019-02-12T17:10:25.155Z,0
2019-02-12T17:11:34.963Z,0
2019-02-12T17:12:45.039Z,0
2019-02-12T17:13:55.328Z,0
2019-02-12T17:15:05.417Z,0
2019-02-12T17:16:15.576Z,0
2019-02-12T17:17:25.634Z,0
2019-02-12T17:18:35.545Z,0
2019-02-12T17:19:45.371Z,0
2019-02-12T17:20:55.465Z,0
2019-02-12T17:22:06.445Z,0
2019-02-12T17:23:16.535Z,0